createdAt,value
2018-07-21T00:01:08.674Z,101272.78
2018-07-21T00:02:45.090Z,101271.91
2018-07-21T00:04:22.064Z,101261.30
2018-07-21T00:05:59.432Z,101247.28
2018-07-21T00:07:38.144Z,101241.92
2018-07-21T00:09:19.178Z,101235.68
2018-07-21T00:10:57.153Z,101232.65
2018-07-21T00:12:36.567Z,101231.28
2018-07-21T00:14:13.836Z,101255.45
2018-07-21T00:15:51.567Z,101243.86
2018-07-21T00:17:30.078Z,101239.77
2018-07-21T00:19:07.560Z,101188.38
2018-07-21T00:20:44.571Z,101103.19
2018-07-21T00:22:24.840Z,101055.75
2018-07-21T00:24:04.330Z,101009.77
2018-07-21T00:25:42.976Z,100988.72
2018-07-21T00:27:24.957Z,100960.27
2018-07-21T00:29:01.842Z,100910.72
2018-07-21T00:30:38.500Z,100943.76
2018-07-21T00:32:15.436Z,100975.41
2018-07-21T00:33:52.790Z,100968.73
2018-07-21T00:35:42.352Z,100894.70
2018-07-21T00:37:25.678Z,100888.95
2018-07-21T00:39:02.023Z,100896.06
2018-07-21T00:40:39.658Z,100870.70
2018-07-21T00:42:16.618Z,100820.22
2018-07-21T00:43:56.303Z,100767.59
2018-07-21T00:45:34.266Z,100761.89
2018-07-21T00:47:10.742Z,100701.19
2018-07-21T00:48:47.876Z,100720.52
2018-07-21T00:50:25.093Z,100779.74
2018-07-21T00:52:01.552Z,100814.09
2018-07-21T00:53:39.414Z,100818.95
2018-07-21T00:55:17.709Z,100815.45
2018-07-21T00:56:55.433Z,100879.27
2018-07-21T00:58:32.134Z,100906.46
2018-07-21T01:00:08.826Z,100879.36
2018-07-21T01:01:45.758Z,100935.52
2018-07-21T01:03:23.419Z,100934.64
2018-07-21T01:05:00.922Z,100956.49
2018-07-21T01:06:37.499Z,100992.63
2018-07-21T01:08:14.256Z,100946.67
2018-07-21T01:09:54.252Z,100934.64
2018-07-21T01:11:30.720Z,101045.44
2018-07-21T01:13:08.611Z,101049.43
2018-07-21T01:14:49.751Z,101088.30
2018-07-21T01:16:27.300Z,101080.26
2018-07-21T01:18:08.229Z,101086.94
2018-07-21T01:19:44.539Z,101114.66
2018-07-21T01:21:24.420Z,101070.52
2018-07-21T01:23:12.066Z,101089.80
2018-07-21T01:24:49.206Z,101089.40
2018-07-21T01:26:26.442Z,101092.91
2018-07-21T01:28:03.841Z,101102.23
2018-07-21T01:29:40.313Z,100932.68
2018-07-21T01:31:18.388Z,100757.41
2018-07-21T01:32:57.212Z,100630.41
2018-07-21T01:34:34.163Z,100577.48
2018-07-21T01:36:10.577Z,100509.94
2018-07-21T01:37:48.518Z,100487.48
2018-07-21T01:39:41.942Z,100459.12
2018-07-21T01:41:47.895Z,100384.44
2018-07-21T01:43:33.426Z,100315.50
2018-07-21T01:45:13.268Z,100296.05
2018-07-21T01:46:55.964Z,100296.34
2018-07-21T01:48:52.015Z,100313.66
2018-07-21T01:50:36.510Z,100332.44
2018-07-21T01:52:16.567Z,100350.28
2018-07-21T01:53:57.829Z,100377.00
2018-07-21T01:55:34.145Z,100356.94
2018-07-21T01:57:12.137Z,100336.02
2018-07-21T01:58:49.069Z,100304.48
2018-07-21T02:00:28.031Z,100255.13
2018-07-21T02:02:05.444Z,100218.70
2018-07-21T02:03:47.324Z,100217.95
2018-07-21T02:05:24.829Z,100224.13
2018-07-21T02:07:01.301Z,100251.16
2018-07-21T02:08:38.755Z,100285.43
2018-07-21T02:10:15.510Z,100277.97
2018-07-21T02:11:52.153Z,100293.92
2018-07-21T02:13:28.652Z,100264.63
2018-07-21T02:15:06.627Z,100272.64
2018-07-21T02:16:43.491Z,100273.64
2018-07-21T02:18:19.942Z,100241.56
2018-07-21T02:19:56.472Z,100111.49
2018-07-21T02:21:34.305Z,99987.19
2018-07-21T02:23:10.733Z,99950.84
2018-07-21T02:24:48.843Z,99830.63
2018-07-21T02:26:25.314Z,99741.66
2018-07-21T02:28:02.136Z,99703.92
2018-07-21T02:29:39.114Z,99651.22
2018-07-21T02:31:16.882Z,99610.06
2018-07-21T02:32:54.515Z,99582.23
2018-07-21T02:34:33.252Z,99523.92
2018-07-21T02:36:10.609Z,99463.72
2018-07-21T02:37:50.934Z,99456.67
2018-07-21T02:39:32.659Z,99488.58
2018-07-21T02:41:10.642Z,99543.75
2018-07-21T02:42:48.535Z,99584.94
2018-07-21T02:44:29.969Z,99618.08
2018-07-21T02:46:20.982Z,99755.93
2018-07-21T02:47:57.297Z,99916.48
2018-07-21T02:49:34.198Z,100066.45
2018-07-21T02:51:10.671Z,100164.98
2018-07-21T02:52:48.064Z,100236.95
2018-07-21T02:54:25.122Z,100282.84
2018-07-21T02:56:03.892Z,100296.70
2018-07-21T02:57:41.304Z,100339.39
2018-07-21T02:59:21.072Z,100390.13
2018-07-21T03:00:58.659Z,100409.30
2018-07-21T03:02:35.194Z,100379.08
2018-07-21T03:04:15.755Z,100336.13
2018-07-21T03:05:53.932Z,100238.24
2018-07-21T03:07:39.894Z,100163.76
2018-07-21T03:09:19.720Z,100259.72
2018-07-21T03:11:05.339Z,100335.73
2018-07-21T03:12:45.304Z,100441.69
2018-07-21T03:14:30.109Z,100524.41
2018-07-21T03:16:15.091Z,100577.38
2018-07-21T03:17:53.086Z,100609.92
2018-07-21T03:19:35.793Z,100657.17
2018-07-21T03:21:13.135Z,100662.62
2018-07-21T03:22:50.841Z,100477.54
2018-07-21T03:24:29.467Z,100330.73
2018-07-21T03:26:10.252Z,100219.61
2018-07-21T03:29:56.169Z,100114.86
2018-07-21T03:31:46.070Z,99824.39
2018-07-21T03:33:31.624Z,99940.63
2018-07-21T03:35:12.655Z,100083.95
2018-07-21T03:36:56.474Z,100189.27
2018-07-21T03:38:47.201Z,100228.72
2018-07-21T03:40:32.097Z,100285.72
2018-07-21T03:42:17.316Z,100333.34
2018-07-21T03:44:07.119Z,100411.70
2018-07-21T03:45:44.765Z,100394.25
2018-07-21T03:47:21.709Z,100417.01
2018-07-21T03:48:58.193Z,100494.02
2018-07-21T03:50:35.965Z,100465.17
2018-07-21T03:52:13.878Z,100377.99
2018-07-21T03:53:50.603Z,100201.56
2018-07-21T03:55:27.605Z,100161.63
2018-07-21T03:57:03.962Z,100168.89
2018-07-21T03:58:40.541Z,100258.55
2018-07-21T04:00:18.414Z,100358.19
2018-07-21T04:01:54.733Z,100394.77
2018-07-21T04:03:31.097Z,100403.29
2018-07-21T04:05:10.789Z,100316.53
2018-07-21T04:06:47.227Z,100218.32
2018-07-21T04:08:23.486Z,100154.02
2018-07-21T04:10:00.131Z,100194.43
2018-07-21T04:11:36.945Z,100261.20
2018-07-21T04:13:13.262Z,100320.70
2018-07-21T04:14:50.494Z,100427.53
2018-07-21T04:16:27.027Z,100537.08
2018-07-21T04:18:05.312Z,100508.23
2018-07-21T04:19:42.077Z,100462.28
2018-07-21T04:21:18.413Z,100424.52
2018-07-21T04:22:54.744Z,100400.11
2018-07-21T04:24:31.000Z,100475.37
2018-07-21T04:26:07.997Z,100554.16
2018-07-21T04:27:44.733Z,100577.41
2018-07-21T04:29:22.066Z,100563.27
2018-07-21T04:31:06.880Z,100379.87
2018-07-21T04:32:44.002Z,100154.66
2018-07-21T04:34:30.017Z,99991.27
2018-07-21T04:36:22.052Z,99934.21
2018-07-21T04:38:02.731Z,99863.16
2018-07-21T04:39:48.534Z,99857.09
2018-07-21T04:41:28.605Z,99926.70
2018-07-21T04:43:10.800Z,99933.73
2018-07-21T04:44:47.354Z,99876.69
2018-07-21T04:46:25.759Z,99806.59
2018-07-21T04:48:05.346Z,99792.38
2018-07-21T04:49:43.309Z,99821.24
2018-07-21T04:51:22.752Z,99892.22
2018-07-21T04:53:00.431Z,100099.55
2018-07-21T04:54:39.637Z,100292.70
2018-07-21T04:56:16.494Z,100435.09
2018-07-21T04:58:00.427Z,100509.03
2018-07-21T04:59:37.962Z,100499.23
2018-07-21T05:01:17.061Z,100297.35
2018-07-21T05:03:01.881Z,100148.94
2018-07-21T05:04:44.819Z,100074.05
2018-07-21T05:06:24.962Z,100056.86
2018-07-21T05:08:06.981Z,99985.37
2018-07-21T05:09:43.373Z,99931.19
2018-07-21T05:11:19.652Z,99985.08
2018-07-21T05:12:57.677Z,100006.81
2018-07-21T05:14:34.861Z,100053.47
2018-07-21T05:16:11.718Z,100120.44
2018-07-21T05:17:53.137Z,100153.81
2018-07-21T05:19:32.379Z,100195.60
2018-07-21T05:21:12.293Z,100260.87
2018-07-21T05:22:50.255Z,100318.27
2018-07-21T05:24:28.404Z,100375.28
2018-07-21T05:26:09.564Z,100361.42
2018-07-21T05:27:47.874Z,100309.09
2018-07-21T05:29:27.066Z,100439.48
2018-07-21T05:31:05.692Z,100507.61
2018-07-21T05:32:46.073Z,100594.89
2018-07-21T05:34:38.771Z,100681.38
2018-07-21T05:36:20.601Z,100924.87
2018-07-21T05:38:00.783Z,101061.47
2018-07-21T05:39:51.296Z,101195.61
2018-07-21T05:41:30.372Z,101225.58
2018-07-21T05:43:08.249Z,101300.67
2018-07-21T05:44:44.676Z,101364.27
2018-07-21T05:46:21.170Z,101472.12
2018-07-21T05:47:58.083Z,101594.42
2018-07-21T05:49:37.713Z,101658.48
2018-07-21T05:51:14.100Z,101720.48
2018-07-21T05:52:50.458Z,101760.37
2018-07-21T05:56:03.466Z,101970.91
2018-07-21T05:57:40.039Z,102049.53
2018-07-21T05:59:22.202Z,102132.69
2018-07-21T06:01:05.305Z,102043.78
2018-07-21T06:02:54.929Z,102171.00
2018-07-21T06:04:38.839Z,102183.63
2018-07-21T06:06:21.138Z,102088.39
2018-07-21T06:07:59.834Z,101968.05
2018-07-21T06:09:39.910Z,101956.92
2018-07-21T06:11:25.973Z,101839.25
2018-07-21T06:13:05.440Z,101801.20
2018-07-21T06:14:48.937Z,101825.96
2018-07-21T06:18:38.454Z,101930.91
2018-07-21T06:20:29.693Z,101933.15
2018-07-21T06:22:07.229Z,101877.10
2018-07-21T06:24:00.569Z,101915.76
2018-07-21T06:25:51.309Z,102010.91
2018-07-21T06:27:33.660Z,102078.80
2018-07-21T06:29:15.298Z,102058.19
2018-07-21T06:30:58.448Z,102127.35
2018-07-21T06:32:44.103Z,102171.82
2018-07-21T06:36:32.064Z,101922.58
2018-07-21T06:39:10.623Z,101836.50
2018-07-21T06:43:17.041Z,101749.48
2018-07-21T06:45:26.627Z,101726.65
2018-07-21T06:47:30.055Z,101661.20
2018-07-21T06:51:47.948Z,101545.20
2018-07-21T06:53:25.931Z,101750.44
2018-07-21T06:55:02.721Z,101902.54
2018-07-21T06:56:39.342Z,101981.89
2018-07-21T06:58:15.789Z,101848.67
2018-07-21T06:59:52.832Z,101819.60
2018-07-21T07:01:29.336Z,101933.98
2018-07-21T07:03:06.494Z,102127.50
2018-07-21T07:04:42.966Z,102196.33
2018-07-21T07:06:20.528Z,101894.06
2018-07-21T07:07:57.720Z,101724.97
2018-07-21T07:09:34.061Z,101800.38
2018-07-21T07:11:11.143Z,102019.76
2018-07-21T07:12:48.135Z,102144.55
2018-07-21T07:14:25.644Z,102226.93
2018-07-21T07:20:23.317Z,102328.11
2018-07-21T07:22:01.316Z,102222.91
2018-07-21T07:23:39.424Z,102262.55
2018-07-21T07:25:16.417Z,102326.81
2018-07-21T07:26:54.578Z,102425.34
2018-07-21T07:28:40.708Z,102487.52
2018-07-21T07:30:17.378Z,102509.99
2018-07-21T07:31:55.374Z,102565.80
2018-07-21T07:33:33.425Z,102587.88
2018-07-21T07:35:10.378Z,102602.27
2018-07-21T07:36:47.834Z,102694.28
2018-07-21T07:38:31.519Z,102724.86
2018-07-21T07:40:15.615Z,102722.22
2018-07-21T07:42:01.765Z,102726.70
2018-07-21T07:43:52.835Z,102761.87
2018-07-21T07:45:39.296Z,102816.48
2018-07-21T07:47:18.609Z,102932.95
2018-07-21T07:48:54.961Z,102933.80
2018-07-21T07:50:41.138Z,102838.15
2018-07-21T07:52:18.708Z,102701.02
2018-07-21T07:53:55.672Z,102660.94
2018-07-21T07:55:35.309Z,102809.70
2018-07-21T07:57:13.664Z,102995.25
2018-07-21T07:58:50.008Z,103209.42
2018-07-21T08:00:28.058Z,103218.00
2018-07-21T08:02:13.688Z,103047.63
2018-07-21T08:03:52.008Z,103053.18
2018-07-21T08:05:32.401Z,103228.87
2018-07-21T08:07:09.376Z,103272.67
2018-07-21T08:08:46.112Z,103197.62
2018-07-21T08:10:29.810Z,102977.61
2018-07-21T08:12:06.122Z,102878.78
2018-07-21T08:13:49.669Z,102847.19
2018-07-21T08:15:30.953Z,102886.00
2018-07-21T08:17:07.980Z,103059.73
2018-07-21T08:18:46.934Z,102952.36
2018-07-21T08:20:23.950Z,102861.11
2018-07-21T08:22:06.787Z,102907.61
2018-07-21T08:23:44.867Z,103010.05
2018-07-21T08:25:21.273Z,103072.81
2018-07-21T08:27:01.224Z,103156.80
2018-07-21T08:28:38.941Z,103244.14
2018-07-21T08:30:16.793Z,103196.13
2018-07-21T08:31:53.615Z,103148.67
2018-07-21T08:33:30.828Z,103247.70
2018-07-21T08:35:08.641Z,103391.94
2018-07-21T08:36:44.994Z,103451.84
2018-07-21T08:38:22.219Z,103508.78
2018-07-21T08:40:00.048Z,103556.81
2018-07-21T08:41:42.936Z,103473.89
2018-07-21T08:43:20.417Z,103294.67
2018-07-21T08:44:56.851Z,103186.59
2018-07-21T08:46:34.240Z,103169.83
2018-07-21T08:48:14.018Z,103080.39
2018-07-21T08:49:50.506Z,103114.22
2018-07-21T08:51:30.427Z,103075.39
2018-07-21T08:53:15.742Z,103019.33
2018-07-21T08:54:54.524Z,102973.73
2018-07-21T08:56:32.568Z,102958.32
2018-07-21T08:58:12.297Z,102914.08
2018-07-21T08:59:51.256Z,102904.18
2018-07-21T09:01:28.169Z,102870.80
2018-07-21T09:03:05.896Z,102937.05
2018-07-21T09:04:49.947Z,102952.30
2018-07-21T09:06:36.917Z,103069.29
2018-07-21T09:08:25.193Z,103180.50
2018-07-21T09:10:06.425Z,103303.02
2018-07-21T09:11:50.065Z,103348.67
2018-07-21T09:13:31.096Z,103326.12
2018-07-21T09:15:19.730Z,103298.49
2018-07-21T09:16:59.369Z,103336.38
2018-07-21T09:19:46.465Z,103475.84
2018-07-21T09:21:25.878Z,103390.20
2018-07-21T09:23:07.302Z,103447.75
2018-07-21T09:26:36.915Z,103575.33
2018-07-21T09:28:21.027Z,103490.23
2018-07-21T09:30:06.595Z,103479.83
2018-07-21T09:31:49.569Z,103473.03
2018-07-21T09:33:26.726Z,103528.64
2018-07-21T09:35:04.456Z,103430.37
2018-07-21T09:36:54.035Z,103369.61
2018-07-21T09:38:35.252Z,103344.31
2018-07-21T09:40:11.908Z,103270.16
2018-07-21T09:41:49.689Z,103323.01
2018-07-21T09:43:26.533Z,103338.34
2018-07-21T09:45:08.103Z,103355.95
2018-07-21T09:46:45.450Z,103421.12
2018-07-21T09:48:25.648Z,103535.15
2018-07-21T09:50:09.636Z,103586.77
2018-07-21T09:51:49.304Z,103530.72
2018-07-21T09:53:28.153Z,103505.23
2018-07-21T09:55:10.826Z,103489.39
2018-07-21T09:56:50.264Z,103444.61
2018-07-21T09:58:35.297Z,103530.55
2018-07-21T10:00:42.692Z,103457.70
2018-07-21T10:02:21.468Z,103412.34
2018-07-21T10:03:58.142Z,103404.09
2018-07-21T10:05:42.555Z,103458.42
2018-07-21T10:07:20.338Z,103511.39
2018-07-21T10:08:59.083Z,103543.45
2018-07-21T10:10:37.949Z,103583.31
2018-07-21T10:12:18.522Z,103492.33
2018-07-21T10:14:00.206Z,103533.97
2018-07-21T10:15:38.859Z,103437.92
2018-07-21T10:17:16.546Z,103419.41
2018-07-21T10:18:57.397Z,103530.26
2018-07-21T10:20:37.147Z,103542.88
2018-07-21T10:22:14.433Z,103585.45
2018-07-21T10:23:55.932Z,103510.61
2018-07-21T10:25:40.854Z,103393.88
2018-07-21T10:27:22.838Z,103470.83
2018-07-21T10:29:09.682Z,103582.22
2018-07-21T10:30:48.607Z,103600.27
2018-07-21T10:32:31.167Z,103583.50
2018-07-21T10:34:12.591Z,103515.98
2018-07-21T10:35:50.228Z,103532.23
2018-07-21T10:37:28.012Z,103611.06
2018-07-21T10:39:16.210Z,103617.39
2018-07-21T10:40:55.666Z,103699.84
2018-07-21T10:42:34.294Z,103476.51
2018-07-21T10:44:12.264Z,103379.66
2018-07-21T10:45:51.293Z,103461.05
2018-07-21T10:47:30.222Z,103666.19
2018-07-21T10:49:09.190Z,103766.34
2018-07-21T10:50:51.768Z,103814.38
2018-07-21T10:52:31.775Z,103788.47
2018-07-21T10:54:09.465Z,103667.91
2018-07-21T10:55:47.046Z,103509.36
2018-07-21T10:57:28.521Z,103517.47
2018-07-21T11:00:47.143Z,103383.38
2018-07-21T11:02:38.504Z,103387.44
2018-07-21T11:04:34.691Z,103399.17
2018-07-21T11:06:16.607Z,103415.83
2018-07-21T11:07:55.000Z,103413.56
2018-07-21T11:09:32.799Z,103394.17
2018-07-21T11:11:17.118Z,103403.61
2018-07-21T11:13:04.441Z,103380.98
2018-07-21T11:15:13.674Z,103346.06
2018-07-21T11:16:54.041Z,103278.08
2018-07-21T11:18:37.464Z,103176.80
2018-07-21T11:20:21.176Z,103144.66
2018-07-21T11:22:01.470Z,103038.05
2018-07-21T11:23:49.660Z,103014.58
2018-07-21T11:27:59.242Z,102878.20
2018-07-21T11:29:39.188Z,103086.23
2018-07-21T11:31:25.653Z,103273.34
2018-07-21T11:33:04.243Z,103406.46
2018-07-21T11:34:43.352Z,103429.44
2018-07-21T11:36:23.426Z,103449.81
2018-07-21T11:38:01.577Z,103547.20
2018-07-21T11:39:39.452Z,103513.16
2018-07-21T11:41:17.495Z,103607.43
2018-07-21T11:42:56.692Z,103651.72
2018-07-21T11:44:33.124Z,103687.58
2018-07-21T11:46:09.996Z,103817.28
2018-07-21T11:47:47.524Z,103844.41
2018-07-21T11:49:25.696Z,103793.61
2018-07-21T11:51:10.655Z,103832.61
2018-07-21T11:52:48.038Z,103850.27
2018-07-21T11:54:25.363Z,103850.69
2018-07-21T11:56:02.592Z,103845.66
2018-07-21T11:57:39.818Z,103833.88
2018-07-21T11:59:18.735Z,103779.37
2018-07-21T12:00:57.736Z,103690.10
2018-07-21T12:02:36.053Z,103686.94
2018-07-21T12:04:13.227Z,103651.55
2018-07-21T12:05:54.453Z,103619.75
2018-07-21T12:07:34.436Z,103623.39
2018-07-21T12:09:15.529Z,103619.27
2018-07-21T12:10:54.069Z,103572.11
2018-07-21T12:12:32.760Z,103441.09
2018-07-21T12:14:12.560Z,103414.81
2018-07-21T12:15:50.406Z,103363.16
2018-07-21T12:17:27.496Z,103363.65
2018-07-21T12:19:05.387Z,103347.82
2018-07-21T12:20:43.231Z,103482.31
2018-07-21T12:22:20.694Z,103524.37
2018-07-21T12:23:57.013Z,103504.89
2018-07-21T12:25:49.713Z,103473.97
2018-07-21T12:27:34.582Z,103516.53
2018-07-21T12:29:14.597Z,103574.07
2018-07-21T12:30:53.895Z,103619.45
2018-07-21T12:32:38.531Z,103578.58
2018-07-21T12:34:18.665Z,103567.20
2018-07-21T12:35:56.774Z,103492.04
2018-07-21T12:37:40.114Z,103440.81
2018-07-21T12:39:16.803Z,103420.83
2018-07-21T12:40:54.575Z,103356.53
2018-07-21T12:42:32.165Z,103318.09
2018-07-21T12:44:08.424Z,103368.28
2018-07-21T12:45:47.115Z,103358.25
2018-07-21T12:47:23.927Z,103337.00
2018-07-21T12:49:03.819Z,103193.69
2018-07-21T12:50:42.511Z,103047.19
2018-07-21T12:52:20.773Z,102880.12
2018-07-21T12:54:01.784Z,102988.95
2018-07-21T12:55:40.988Z,103009.69
2018-07-21T12:57:19.156Z,103196.73
2018-07-21T12:58:57.785Z,103268.55
2018-07-21T13:00:35.329Z,103138.73
2018-07-21T13:02:16.136Z,103198.92
2018-07-21T13:03:58.426Z,103362.06
2018-07-21T13:05:43.225Z,103462.66
2018-07-21T13:07:21.419Z,103512.34
2018-07-21T13:09:03.154Z,103588.90
2018-07-21T13:10:41.947Z,103690.92
2018-07-21T13:12:19.614Z,103762.52
2018-07-21T13:14:01.964Z,103760.66
2018-07-21T13:15:40.961Z,103669.56
2018-07-21T13:17:18.288Z,103697.67
2018-07-21T13:18:55.317Z,103707.55
2018-07-21T13:20:33.480Z,103779.73
2018-07-21T13:22:13.948Z,103844.48
2018-07-21T13:23:52.712Z,103723.92
2018-07-21T13:25:33.458Z,103752.41
2018-07-21T13:27:13.684Z,103805.89
2018-07-21T13:28:53.984Z,103914.21
2018-07-21T13:30:31.540Z,103672.08
2018-07-21T13:32:08.972Z,103327.89
2018-07-21T13:33:47.835Z,103364.98
2018-07-21T13:35:24.197Z,103551.05
2018-07-21T13:37:01.514Z,103676.08
2018-07-21T13:38:45.088Z,103624.48
2018-07-21T13:40:34.420Z,103637.11
2018-07-21T13:42:20.243Z,103827.96
2018-07-21T13:44:00.732Z,103932.33
2018-07-21T13:45:37.474Z,103910.91
2018-07-21T13:47:16.145Z,103852.30
2018-07-21T13:48:57.308Z,103807.45
2018-07-21T13:50:36.222Z,103794.27
2018-07-21T13:52:15.309Z,103799.67
2018-07-21T13:53:53.990Z,103812.82
2018-07-21T13:55:32.171Z,103837.71
2018-07-21T13:57:14.128Z,103860.44
2018-07-21T13:58:51.802Z,103890.73
2018-07-21T14:00:31.195Z,103934.38
2018-07-21T14:04:01.360Z,103924.38
2018-07-21T14:05:41.518Z,103936.55
2018-07-21T14:07:20.074Z,103952.46
2018-07-21T14:09:00.503Z,103936.06
2018-07-21T14:10:39.429Z,103881.09
2018-07-21T14:12:15.859Z,103870.25
2018-07-21T14:13:52.703Z,103866.53
2018-07-21T14:15:36.274Z,103848.84
2018-07-21T14:17:18.821Z,103849.66
2018-07-21T14:18:58.535Z,103815.69
2018-07-21T14:20:36.679Z,103809.80
2018-07-21T14:22:14.841Z,103845.53
2018-07-21T14:23:54.011Z,103838.30
2018-07-21T14:25:35.071Z,103847.81
2018-07-21T14:27:17.804Z,103890.85
2018-07-21T14:28:59.551Z,103985.72
2018-07-21T14:30:41.153Z,104036.61
2018-07-21T14:32:22.310Z,104046.55
2018-07-21T14:33:59.881Z,104013.36
2018-07-21T14:35:37.939Z,103926.19
2018-07-21T14:37:14.836Z,103931.56
2018-07-21T14:38:53.546Z,103911.63
2018-07-21T14:40:34.409Z,103883.90
2018-07-21T14:42:13.037Z,103831.59
2018-07-21T14:43:53.781Z,103855.28
2018-07-21T14:45:39.951Z,103829.84
2018-07-21T14:47:23.292Z,103907.80
2018-07-21T14:49:02.254Z,103886.48
2018-07-21T14:50:44.835Z,103937.25
2018-07-21T14:52:33.285Z,103952.66
2018-07-21T14:54:12.355Z,104019.88
2018-07-21T14:55:50.422Z,103995.38
2018-07-21T14:57:31.393Z,103919.17
2018-07-21T14:59:07.850Z,103889.52
2018-07-21T15:00:53.142Z,103839.17
2018-07-21T15:02:32.594Z,103818.24
2018-07-21T15:04:11.370Z,103793.77
2018-07-21T15:05:52.401Z,103808.30
2018-07-21T15:07:30.758Z,103905.81
2018-07-21T15:09:12.256Z,103993.42
2018-07-21T15:11:06.889Z,104097.80
2018-07-21T15:12:45.387Z,104126.86
2018-07-21T15:14:55.252Z,104100.48
2018-07-21T15:16:35.606Z,104145.03
2018-07-21T15:18:18.568Z,104099.59
2018-07-21T15:19:57.406Z,103991.42
2018-07-21T15:21:47.549Z,103919.21
2018-07-21T15:23:28.621Z,103949.56
2018-07-21T15:25:05.754Z,103965.06
2018-07-21T15:26:43.598Z,104004.08
2018-07-21T15:28:20.204Z,104022.17
2018-07-21T15:30:01.542Z,103993.05
2018-07-21T15:31:41.712Z,103985.81
2018-07-21T15:33:22.471Z,103941.30
2018-07-21T15:35:00.335Z,103957.59
2018-07-21T15:36:39.262Z,103960.77
2018-07-21T15:38:20.708Z,103963.04
2018-07-21T15:39:58.552Z,103992.57
2018-07-21T15:41:35.844Z,104024.69
2018-07-21T15:43:21.963Z,103922.08
2018-07-21T15:45:00.001Z,103809.13
2018-07-21T15:46:37.390Z,103923.87
2018-07-21T15:48:14.654Z,104008.80
2018-07-21T15:49:53.972Z,103978.79
2018-07-21T15:51:30.589Z,103951.53
2018-07-21T15:53:08.202Z,103898.80
2018-07-21T15:54:45.479Z,103699.67
2018-07-21T15:56:24.562Z,103362.61
2018-07-21T15:58:01.574Z,103031.26
2018-07-21T15:59:38.804Z,102889.41
2018-07-21T16:01:18.254Z,102726.51
2018-07-21T16:03:05.712Z,102385.06
2018-07-21T16:04:42.938Z,102195.16
2018-07-21T16:06:25.575Z,102113.78
2018-07-21T16:08:04.116Z,102164.95
2018-07-21T16:09:42.647Z,102249.86
2018-07-21T16:11:21.561Z,102283.66
2018-07-21T16:12:58.320Z,102193.31
2018-07-21T16:14:34.685Z,102134.33
2018-07-21T16:16:12.505Z,102093.06
2018-07-21T16:17:49.263Z,102037.73
2018-07-21T16:19:25.709Z,101953.82
2018-07-21T16:21:04.106Z,101890.94
2018-07-21T16:22:41.233Z,101854.50
2018-07-21T16:24:20.068Z,101867.48
2018-07-21T16:25:57.012Z,101846.39
2018-07-21T16:27:35.911Z,101900.30
2018-07-21T16:29:12.609Z,101947.88
2018-07-21T16:30:49.170Z,101962.62
2018-07-21T16:32:33.456Z,102028.65
2018-07-21T16:34:09.957Z,102055.62
2018-07-21T16:35:48.696Z,102025.11
2018-07-21T16:37:27.293Z,102055.62
2018-07-21T16:39:16.689Z,102165.63
2018-07-21T16:40:53.398Z,102155.25
2018-07-21T16:42:31.669Z,102102.27
2018-07-21T16:44:10.219Z,102055.14
2018-07-21T16:45:49.525Z,102036.85
2018-07-21T16:47:28.096Z,101997.62
2018-07-21T16:49:04.668Z,101987.86
2018-07-21T16:50:41.038Z,101967.60
2018-07-21T16:52:18.396Z,101877.05
2018-07-21T16:53:57.437Z,101854.98
2018-07-21T16:55:33.885Z,101837.43
2018-07-21T16:57:11.631Z,101835.27
2018-07-21T16:58:49.306Z,101811.94
2018-07-21T17:00:27.852Z,101807.52
2018-07-21T17:02:07.495Z,101756.83
2018-07-21T17:03:45.356Z,101734.78
2018-07-21T17:05:21.881Z,101729.80
2018-07-21T17:06:58.854Z,101743.30
2018-07-21T17:08:35.435Z,101803.42
2018-07-21T17:10:12.689Z,101830.37
2018-07-21T17:11:49.212Z,101917.02
2018-07-21T17:13:26.893Z,101964.11
2018-07-21T17:15:07.116Z,101997.42
2018-07-21T17:16:45.302Z,102011.69
2018-07-21T17:18:22.516Z,102032.03
2018-07-21T17:19:59.932Z,102052.17
2018-07-21T17:21:39.446Z,102020.30
2018-07-21T17:23:15.969Z,101963.30
2018-07-21T17:24:53.104Z,101946.80
2018-07-21T17:26:32.914Z,101918.95
2018-07-21T17:28:09.364Z,101880.78
2018-07-21T17:29:49.467Z,101853.83
2018-07-21T17:31:26.212Z,101882.99
2018-07-21T17:33:05.420Z,101853.83
2018-07-21T17:34:43.896Z,101859.66
2018-07-21T17:36:21.836Z,101838.57
2018-07-21T17:37:59.525Z,101813.19
2018-07-21T17:39:42.467Z,101771.85
2018-07-21T17:41:19.782Z,101753.02
2018-07-21T17:42:58.512Z,101749.41
2018-07-21T17:44:35.487Z,101767.88
2018-07-21T17:46:14.384Z,101761.05
2018-07-21T17:47:51.954Z,101777.71
2018-07-21T17:49:31.486Z,101802.44
2018-07-21T17:51:13.788Z,101794.81
2018-07-21T17:52:55.723Z,101833.00
2018-07-21T17:54:35.197Z,101853.20
2018-07-21T17:56:11.528Z,101882.31
2018-07-21T17:57:48.702Z,101935.83
2018-07-21T17:59:26.749Z,101922.25
2018-07-21T18:01:05.865Z,101945.63
2018-07-21T18:02:42.471Z,101999.05
2018-07-21T18:04:19.361Z,102178.80
2018-07-21T18:05:58.009Z,102230.54
2018-07-21T18:07:35.751Z,102338.14
2018-07-21T18:09:14.860Z,102296.62
2018-07-21T18:10:52.306Z,102274.17
2018-07-21T18:12:29.820Z,102185.63
2018-07-21T18:14:06.466Z,102049.98
2018-07-21T18:15:44.193Z,101964.25
2018-07-21T18:17:21.218Z,101822.84
2018-07-21T18:18:59.840Z,101730.96
2018-07-21T18:20:37.981Z,101666.00
2018-07-21T18:22:15.546Z,101730.48
2018-07-21T18:23:52.511Z,101611.77
2018-07-21T18:25:30.033Z,101372.39
2018-07-21T18:27:06.557Z,100944.66
2018-07-21T18:28:44.667Z,100571.11
2018-07-21T18:30:25.221Z,100254.45
2018-07-21T18:32:01.993Z,99945.91
2018-07-21T18:33:41.416Z,99711.31
2018-07-21T18:35:22.278Z,99501.16
2018-07-21T18:36:59.274Z,99319.44
2018-07-21T18:38:38.264Z,99282.27
2018-07-21T18:40:17.279Z,99300.01
2018-07-21T18:41:54.934Z,99332.60
2018-07-21T18:43:31.302Z,99390.61
2018-07-21T18:45:09.423Z,99397.98
2018-07-21T18:46:47.434Z,99468.40
2018-07-21T18:48:28.498Z,99492.08
2018-07-21T18:50:07.628Z,99576.20
2018-07-21T18:51:46.610Z,99615.64
2018-07-21T18:53:26.449Z,99507.34
2018-07-21T18:55:04.276Z,99367.05
2018-07-21T18:56:42.648Z,99294.22
2018-07-21T18:58:25.577Z,99266.30
2018-07-21T19:00:11.791Z,99240.72
2018-07-21T19:01:49.495Z,99312.30
2018-07-21T19:03:33.417Z,99333.95
2018-07-21T19:05:18.347Z,99301.70
2018-07-21T19:06:56.827Z,99371.62
2018-07-21T19:08:40.321Z,99369.75
2018-07-21T19:10:18.403Z,99342.06
2018-07-21T19:12:01.795Z,99449.53
2018-07-21T19:13:38.820Z,99546.36
2018-07-21T19:17:24.041Z,99524.30
2018-07-21T19:19:00.487Z,99631.50
2018-07-21T19:20:46.232Z,99715.12
2018-07-21T19:22:25.491Z,99743.98
2018-07-21T19:24:04.098Z,99723.25
2018-07-21T19:25:49.368Z,99712.14
2018-07-21T19:27:32.671Z,99785.27
2018-07-21T19:29:09.797Z,99910.89
2018-07-21T19:30:48.612Z,99887.80
2018-07-21T19:32:33.483Z,99954.83